sensor_id;sensor_type;location;lat;lon;timestamp;temperature;humidity
13472;DHT22;6808;49.444;11.034;2023-04-23T00:00:40;16.00;99.90
13472;DHT22;6808;49.444;11.034;2023-04-23T00:03:07;16.00;99.90
13472;DHT22;6808;49.444;11.034;2023-04-23T00:05:38;16.10;99.90
13472;DHT22;6808;49.444;11.034;2023-04-23T00:08:04;16.00;99.90
13472;DHT22;6808;49.444;11.034;2023-04-23T00:10:30;15.80;99.90
13472;DHT22;6808;49.444;11.034;2023-04-23T00:12:56;15.90;99.90
13472;DHT22;6808;49.444;11.034;2023-04-23T00:15:22;15.80;99.90
13472;DHT22;6808;49.444;11.034;2023-04-23T00:17:48;15.80;99.90
13472;DHT22;6808;49.444;11.034;2023-04-23T00:20:15;15.80;99.90
13472;DHT22;6808;49.444;11.034;2023-04-23T00:22:41;15.80;99.90
13472;DHT22;6808;49.444;11.034;2023-04-23T00:25:08;15.70;99.90
13472;DHT22;6808;49.444;11.034;2023-04-23T00:27:34;15.80;99.90
13472;DHT22;6808;49.444;11.034;2023-04-23T00:30:00;15.80;99.90
13472;DHT22;6808;49.444;11.034;2023-04-23T00:32:25;15.80;99.90
13472;DHT22;6808;49.444;11.034;2023-04-23T00:34:51;15.80;99.90
13472;DHT22;6808;49.444;11.034;2023-04-23T00:37:17;15.70;99.90
13472;DHT22;6808;49.444;11.034;2023-04-23T00:39:43;15.70;99.90
13472;DHT22;6808;49.444;11.034;2023-04-23T00:42:09;15.70;99.90
13472;DHT22;6808;49.444;11.034;2023-04-23T00:44:38;15.60;99.90
13472;DHT22;6808;49.444;11.034;2023-04-23T00:47:06;15.60;99.90
13472;DHT22;6808;49.444;11.034;2023-04-23T00:49:32;15.50;99.90
13472;DHT22;6808;49.444;11.034;2023-04-23T00:51:58;15.50;99.90
13472;DHT22;6808;49.444;11.034;2023-04-23T00:54:25;15.50;99.90
13472;DHT22;6808;49.444;11.034;2023-04-23T00:56:51;15.50;99.90
13472;DHT22;6808;49.444;11.034;2023-04-23T00:59:17;15.50;99.90
13472;DHT22;6808;49.444;11.034;2023-04-23T01:01:43;15.50;99.90
13472;DHT22;6808;49.444;11.034;2023-04-23T01:04:13;15.50;99.90
13472;DHT22;6808;49.444;11.034;2023-04-23T01:06:40;15.40;99.90
13472;DHT22;6808;49.444;11.034;2023-04-23T01:09:07;15.40;99.90
13472;DHT22;6808;49.444;11.034;2023-04-23T01:11:35;15.40;99.90
13472;DHT22;6808;49.444;11.034;2023-04-23T01:14:03;14.40;99.90
13472;DHT22;6808;49.444;11.034;2023-04-23T01:16:28;15.40;99.90
13472;DHT22;6808;49.444;11.034;2023-04-23T01:18:54;15.40;99.90
13472;DHT22;6808;49.444;11.034;2023-04-23T01:21:21;15.40;99.90
13472;DHT22;6808;49.444;11.034;2023-04-23T01:23:47;15.30;99.90
13472;DHT22;6808;49.444;11.034;2023-04-23T01:26:13;15.30;99.90
13472;DHT22;6808;49.444;11.034;2023-04-23T01:28:40;15.30;99.90
13472;DHT22;6808;49.444;11.034;2023-04-23T01:31:06;15.30;99.90
13472;DHT22;6808;49.444;11.034;2023-04-23T01:33:32;15.20;99.90
13472;DHT22;6808;49.444;11.034;2023-04-23T01:35:59;15.20;99.90
13472;DHT22;6808;49.444;11.034;2023-04-23T01:38:27;15.20;99.90
13472;DHT22;6808;49.444;11.034;2023-04-23T01:40:55;15.20;99.90
13472;DHT22;6808;49.444;11.034;2023-04-23T01:43:21;15.10;99.90
13472;DHT22;6808;49.444;11.034;2023-04-23T01:45:47;15.10;99.90
13472;DHT22;6808;49.444;11.034;2023-04-23T01:48:13;15.10;99.90
13472;DHT22;6808;49.444;11.034;2023-04-23T01:50:39;15.10;99.90
13472;DHT22;6808;49.444;11.034;2023-04-23T01:53:05;15.10;99.90
13472;DHT22;6808;49.444;11.034;2023-04-23T01:55:30;15.10;99.90
13472;DHT22;6808;49.444;11.034;2023-04-23T01:57:57;15.10;99.90
13472;DHT22;6808;49.444;11.034;2023-04-23T02:00:22;15.00;99.90
13472;DHT22;6808;49.444;11.034;2023-04-23T02:02:48;15.00;99.90
13472;DHT22;6808;49.444;11.034;2023-04-23T02:05:16;15.00;99.90
13472;DHT22;6808;49.444;11.034;2023-04-23T02:07:46;15.00;99.90
13472;DHT22;6808;49.444;11.034;2023-04-23T02:10:12;15.00;99.90
13472;DHT22;6808;49.444;11.034;2023-04-23T02:12:38;15.00;99.90
13472;DHT22;6808;49.444;11.034;2023-04-23T02:15:05;15.00;99.90
13472;DHT22;6808;49.444;11.034;2023-04-23T02:17:31;15.00;99.90
13472;DHT22;6808;49.444;11.034;2023-04-23T02:19:57;14.90;99.90
13472;DHT22;6808;49.444;11.034;2023-04-23T02:22:23;14.90;99.90
13472;DHT22;6808;49.444;11.034;2023-04-23T02:24:51;14.90;99.90
13472;DHT22;6808;49.444;11.034;2023-04-23T02:27:17;14.80;99.90
13472;DHT22;6808;49.444;11.034;2023-04-23T02:29:44;14.80;99.90
13472;DHT22;6808;49.444;11.034;2023-04-23T02:32:09;14.80;99.90
13472;DHT22;6808;49.444;11.034;2023-04-23T02:34:35;14.90;99.90
13472;DHT22;6808;49.444;11.034;2023-04-23T02:37:00;14.80;99.90
13472;DHT22;6808;49.444;11.034;2023-04-23T02:39:26;14.80;99.90
13472;DHT22;6808;49.444;11.034;2023-04-23T02:41:51;14.80;99.90
13472;DHT22;6808;49.444;11.034;2023-04-23T02:44:17;14.80;99.90
13472;DHT22;6808;49.444;11.034;2023-04-23T02:46:42;14.80;99.90
13472;DHT22;6808;49.444;11.034;2023-04-23T02:49:08;14.70;99.90
13472;DHT22;6808;49.444;11.034;2023-04-23T02:51:34;14.70;99.90
13472;DHT22;6808;49.444;11.034;2023-04-23T02:53:59;14.70;99.90
13472;DHT22;6808;49.444;11.034;2023-04-23T02:56:25;14.70;99.90
13472;DHT22;6808;49.444;11.034;2023-04-23T02:58:50;14.70;99.90
13472;DHT22;6808;49.444;11.034;2023-04-23T03:01:16;14.70;99.90
13472;DHT22;6808;49.444;11.034;2023-04-23T03:03:42;14.70;99.90
13472;DHT22;6808;49.444;11.034;2023-04-23T03:06:07;14.60;99.90
13472;DHT22;6808;49.444;11.034;2023-04-23T03:08:33;14.60;99.90
13472;DHT22;6808;49.444;11.034;2023-04-23T03:10:58;14.60;99.90
13472;DHT22;6808;49.444;11.034;2023-04-23T03:13:25;14.60;99.90
13472;DHT22;6808;49.444;11.034;2023-04-23T03:15:51;14.60;99.90
13472;DHT22;6808;49.444;11.034;2023-04-23T03:18:17;14.60;99.90
13472;DHT22;6808;49.444;11.034;2023-04-23T03:20:43;14.60;99.90
13472;DHT22;6808;49.444;11.034;2023-04-23T03:23:08;14.50;99.90
13472;DHT22;6808;49.444;11.034;2023-04-23T03:25:34;14.50;99.90
13472;DHT22;6808;49.444;11.034;2023-04-23T03:28:00;14.50;99.90
13472;DHT22;6808;49.444;11.034;2023-04-23T03:30:26;14.40;99.90
13472;DHT22;6808;49.444;11.034;2023-04-23T03:32:54;14.30;99.90
13472;DHT22;6808;49.444;11.034;2023-04-23T03:35:20;14.30;99.90
13472;DHT22;6808;49.444;11.034;2023-04-23T03:37:46;14.00;99.90
13472;DHT22;6808;49.444;11.034;2023-04-23T03:40:11;14.30;99.90
13472;DHT22;6808;49.444;11.034;2023-04-23T03:42:37;14.20;99.90
13472;DHT22;6808;49.444;11.034;2023-04-23T03:45:03;14.20;99.90
13472;DHT22;6808;49.444;11.034;2023-04-23T03:47:29;14.20;99.90
13472;DHT22;6808;49.444;11.034;2023-04-23T03:49:55;14.10;99.90
13472;DHT22;6808;49.444;11.034;2023-04-23T03:52:20;14.10;99.90
13472;DHT22;6808;49.444;11.034;2023-04-23T03:54:46;14.00;99.90
13472;DHT22;6808;49.444;11.034;2023-04-23T03:57:11;13.90;99.90
13472;DHT22;6808;49.444;11.034;2023-04-23T03:59:37;13.90;99.90
13472;DHT22;6808;49.444;11.034;2023-04-23T04:02:03;13.90;99.90
13472;DHT22;6808;49.444;11.034;2023-04-23T04:04:29;13.90;99.90
13472;DHT22;6808;49.444;11.034;2023-04-23T04:06:56;13.80;99.90
13472;DHT22;6808;49.444;11.034;2023-04-23T04:09:22;13.80;99.90
13472;DHT22;6808;49.444;11.034;2023-04-23T04:11:47;13.90;99.90
13472;DHT22;6808;49.444;11.034;2023-04-23T04:14:13;13.80;99.90
13472;DHT22;6808;49.444;11.034;2023-04-23T04:16:39;13.80;99.90
13472;DHT22;6808;49.444;11.034;2023-04-23T04:19:05;13.90;99.90
13472;DHT22;6808;49.444;11.034;2023-04-23T04:21:30;13.90;99.90
13472;DHT22;6808;49.444;11.034;2023-04-23T04:23:58;13.80;99.90
13472;DHT22;6808;49.444;11.034;2023-04-23T04:26:26;13.80;99.90
13472;DHT22;6808;49.444;11.034;2023-04-23T04:28:52;13.80;99.90
13472;DHT22;6808;49.444;11.034;2023-04-23T04:31:17;13.80;99.90
13472;DHT22;6808;49.444;11.034;2023-04-23T04:33:46;13.70;99.90
13472;DHT22;6808;49.444;11.034;2023-04-23T04:36:12;13.70;99.90
13472;DHT22;6808;49.444;11.034;2023-04-23T04:38:38;13.70;99.90
13472;DHT22;6808;49.444;11.034;2023-04-23T04:41:04;13.70;99.90
13472;DHT22;6808;49.444;11.034;2023-04-23T04:43:29;13.70;99.90
13472;DHT22;6808;49.444;11.034;2023-04-23T04:45:57;13.70;99.90
13472;DHT22;6808;49.444;11.034;2023-04-23T04:48:23;13.60;99.90
13472;DHT22;6808;49.444;11.034;2023-04-23T04:50:49;13.60;99.90
13472;DHT22;6808;49.444;11.034;2023-04-23T04:53:15;13.60;99.90
13472;DHT22;6808;49.444;11.034;2023-04-23T04:55:41;13.60;99.90
13472;DHT22;6808;49.444;11.034;2023-04-23T04:58:06;13.60;99.90
13472;DHT22;6808;49.444;11.034;2023-04-23T05:00:32;13.60;99.90
13472;DHT22;6808;49.444;11.034;2023-04-23T05:02:58;13.60;99.90
13472;DHT22;6808;49.444;11.034;2023-04-23T05:05:25;13.60;99.90
13472;DHT22;6808;49.444;11.034;2023-04-23T05:07:51;13.60;99.90
13472;DHT22;6808;49.444;11.034;2023-04-23T05:10:19;13.50;99.90
13472;DHT22;6808;49.444;11.034;2023-04-23T05:12:45;13.50;99.90
13472;DHT22;6808;49.444;11.034;2023-04-23T05:15:12;13.60;99.90
13472;DHT22;6808;49.444;11.034;2023-04-23T05:17:41;13.50;99.90
13472;DHT22;6808;49.444;11.034;2023-04-23T05:20:07;13.40;99.90
13472;DHT22;6808;49.444;11.034;2023-04-23T05:22:37;13.40;99.90
13472;DHT22;6808;49.444;11.034;2023-04-23T05:25:03;13.40;99.90
13472;DHT22;6808;49.444;11.034;2023-04-23T05:27:29;13.50;99.90
13472;DHT22;6808;49.444;11.034;2023-04-23T05:29:55;13.50;99.90
13472;DHT22;6808;49.444;11.034;2023-04-23T05:32:20;13.60;99.90
13472;DHT22;6808;49.444;11.034;2023-04-23T05:34:46;13.60;99.90
13472;DHT22;6808;49.444;11.034;2023-04-23T05:37:11;13.60;99.90
13472;DHT22;6808;49.444;11.034;2023-04-23T05:39:37;13.60;99.90
13472;DHT22;6808;49.444;11.034;2023-04-23T05:42:02;13.60;99.90
13472;DHT22;6808;49.444;11.034;2023-04-23T05:44:28;13.60;99.90
13472;DHT22;6808;49.444;11.034;2023-04-23T05:46:54;13.60;99.90
13472;DHT22;6808;49.444;11.034;2023-04-23T05:49:21;13.60;99.90
13472;DHT22;6808;49.444;11.034;2023-04-23T05:51:47;13.60;99.90
13472;DHT22;6808;49.444;11.034;2023-04-23T05:54:12;13.60;99.90
13472;DHT22;6808;49.444;11.034;2023-04-23T05:56:38;13.60;99.90
13472;DHT22;6808;49.444;11.034;2023-04-23T05:59:03;13.60;99.90
13472;DHT22;6808;49.444;11.034;2023-04-23T06:01:29;13.60;99.90
13472;DHT22;6808;49.444;11.034;2023-04-23T06:03:54;13.60;99.90
13472;DHT22;6808;49.444;11.034;2023-04-23T06:06:20;13.60;99.90
13472;DHT22;6808;49.444;11.034;2023-04-23T06:08:45;13.50;99.90
13472;DHT22;6808;49.444;11.034;2023-04-23T06:11:11;13.40;99.90
13472;DHT22;6808;49.444;11.034;2023-04-23T06:13:36;13.40;99.90
13472;DHT22;6808;49.444;11.034;2023-04-23T06:16:06;13.40;99.90
13472;DHT22;6808;49.444;11.034;2023-04-23T06:18:32;13.40;99.90
13472;DHT22;6808;49.444;11.034;2023-04-23T06:20:57;13.40;99.90
13472;DHT22;6808;49.444;11.034;2023-04-23T06:23:25;13.40;99.90
13472;DHT22;6808;49.444;11.034;2023-04-23T06:25:51;13.40;99.90
13472;DHT22;6808;49.444;11.034;2023-04-23T06:28:16;13.40;99.90
13472;DHT22;6808;49.444;11.034;2023-04-23T06:30:42;13.40;99.90
13472;DHT22;6808;49.444;11.034;2023-04-23T06:33:07;13.50;99.90
13472;DHT22;6808;49.444;11.034;2023-04-23T06:35:33;13.50;99.90
13472;DHT22;6808;49.444;11.034;2023-04-23T06:37:59;13.50;99.90
13472;DHT22;6808;49.444;11.034;2023-04-23T06:40:24;13.50;99.90
13472;DHT22;6808;49.444;11.034;2023-04-23T06:42:50;13.50;99.90
13472;DHT22;6808;49.444;11.034;2023-04-23T06:45:16;13.50;99.90
13472;DHT22;6808;49.444;11.034;2023-04-23T06:47:41;13.50;99.90
13472;DHT22;6808;49.444;11.034;2023-04-23T06:50:07;13.50;99.90
13472;DHT22;6808;49.444;11.034;2023-04-23T06:52:33;13.50;99.90
13472;DHT22;6808;49.444;11.034;2023-04-23T06:54:58;13.50;99.90
13472;DHT22;6808;49.444;11.034;2023-04-23T06:57:24;13.50;99.90
13472;DHT22;6808;49.444;11.034;2023-04-23T06:59:50;13.50;99.90
13472;DHT22;6808;49.444;11.034;2023-04-23T07:02:15;13.50;99.90
13472;DHT22;6808;49.444;11.034;2023-04-23T07:04:41;13.40;99.90
13472;DHT22;6808;49.444;11.034;2023-04-23T07:07:06;13.40;99.90
13472;DHT22;6808;49.444;11.034;2023-04-23T07:09:32;13.40;99.90
13472;DHT22;6808;49.444;11.034;2023-04-23T07:11:57;13.50;99.90
13472;DHT22;6808;49.444;11.034;2023-04-23T07:14:24;13.50;99.90
13472;DHT22;6808;49.444;11.034;2023-04-23T07:16:49;13.50;99.90
13472;DHT22;6808;49.444;11.034;2023-04-23T07:19:16;13.50;99.90
13472;DHT22;6808;49.444;11.034;2023-04-23T07:21:41;13.60;99.90
13472;DHT22;6808;49.444;11.034;2023-04-23T07:24:07;13.60;99.90
13472;DHT22;6808;49.444;11.034;2023-04-23T07:26:33;13.70;99.90
13472;DHT22;6808;49.444;11.034;2023-04-23T07:28:59;13.70;99.90
13472;DHT22;6808;49.444;11.034;2023-04-23T07:31:26;13.60;99.90
13472;DHT22;6808;49.444;11.034;2023-04-23T07:33:51;13.60;99.90
13472;DHT22;6808;49.444;11.034;2023-04-23T07:36:17;13.60;99.90
13472;DHT22;6808;49.444;11.034;2023-04-23T07:38:43;13.70;99.90
13472;DHT22;6808;49.444;11.034;2023-04-23T07:41:09;13.70;99.90
13472;DHT22;6808;49.444;11.034;2023-04-23T07:43:34;13.60;99.90
13472;DHT22;6808;49.444;11.034;2023-04-23T07:46:00;13.70;99.90
13472;DHT22;6808;49.444;11.034;2023-04-23T07:48:25;13.70;99.90
13472;DHT22;6808;49.444;11.034;2023-04-23T07:50:51;13.80;99.90
13472;DHT22;6808;49.444;11.034;2023-04-23T07:53:17;13.80;99.90
13472;DHT22;6808;49.444;11.034;2023-04-23T07:55:42;13.80;99.90
13472;DHT22;6808;49.444;11.034;2023-04-23T07:58:08;13.90;99.90
13472;DHT22;6808;49.444;11.034;2023-04-23T08:00:34;13.90;99.90
13472;DHT22;6808;49.444;11.034;2023-04-23T08:03:00;13.90;99.90
13472;DHT22;6808;49.444;11.034;2023-04-23T08:05:26;13.90;99.90
13472;DHT22;6808;49.444;11.034;2023-04-23T08:07:51;13.80;99.90
13472;DHT22;6808;49.444;11.034;2023-04-23T08:10:17;13.80;99.90
13472;DHT22;6808;49.444;11.034;2023-04-23T08:12:43;13.80;99.90
13472;DHT22;6808;49.444;11.034;2023-04-23T08:15:09;13.80;99.90
13472;DHT22;6808;49.444;11.034;2023-04-23T08:17:35;13.80;99.90
13472;DHT22;6808;49.444;11.034;2023-04-23T08:20:02;13.90;99.90
13472;DHT22;6808;49.444;11.034;2023-04-23T08:22:28;13.90;99.90
13472;DHT22;6808;49.444;11.034;2023-04-23T08:24:54;13.90;99.90
13472;DHT22;6808;49.444;11.034;2023-04-23T08:27:19;14.00;99.90
13472;DHT22;6808;49.444;11.034;2023-04-23T08:29:45;14.10;99.90
13472;DHT22;6808;49.444;11.034;2023-04-23T08:32:10;14.10;99.90
13472;DHT22;6808;49.444;11.034;2023-04-23T08:34:37;14.20;99.90
13472;DHT22;6808;49.444;11.034;2023-04-23T08:37:03;14.20;99.90
13472;DHT22;6808;49.444;11.034;2023-04-23T08:39:29;14.20;99.90
13472;DHT22;6808;49.444;11.034;2023-04-23T08:42:09;14.30;99.90
13472;DHT22;6808;49.444;11.034;2023-04-23T08:44:37;14.40;99.90
13472;DHT22;6808;49.444;11.034;2023-04-23T08:47:06;14.30;99.90
13472;DHT22;6808;49.444;11.034;2023-04-23T08:49:36;14.30;99.90
13472;DHT22;6808;49.444;11.034;2023-04-23T08:52:16;14.40;99.90
13472;DHT22;6808;49.444;11.034;2023-04-23T08:54:47;14.40;99.90
13472;DHT22;6808;49.444;11.034;2023-04-23T08:57:15;14.40;99.90
13472;DHT22;6808;49.444;11.034;2023-04-23T08:59:42;14.40;99.90
13472;DHT22;6808;49.444;11.034;2023-04-23T09:02:08;14.50;99.90
13472;DHT22;6808;49.444;11.034;2023-04-23T09:04:35;14.50;99.90
13472;DHT22;6808;49.444;11.034;2023-04-23T09:07:01;14.50;99.90
13472;DHT22;6808;49.444;11.034;2023-04-23T09:09:29;14.60;99.90
13472;DHT22;6808;49.444;11.034;2023-04-23T09:11:56;14.60;99.90
13472;DHT22;6808;49.444;11.034;2023-04-23T09:14:22;14.50;99.90
13472;DHT22;6808;49.444;11.034;2023-04-23T09:16:50;14.50;99.90
13472;DHT22;6808;49.444;11.034;2023-04-23T09:19:17;14.50;99.90
13472;DHT22;6808;49.444;11.034;2023-04-23T09:21:43;14.50;99.90
13472;DHT22;6808;49.444;11.034;2023-04-23T09:24:10;14.50;99.90
13472;DHT22;6808;49.444;11.034;2023-04-23T09:26:46;14.70;99.90
13472;DHT22;6808;49.444;11.034;2023-04-23T09:29:17;14.70;99.90
13472;DHT22;6808;49.444;11.034;2023-04-23T09:31:47;14.70;99.90
13472;DHT22;6808;49.444;11.034;2023-04-23T09:34:23;14.80;99.90
13472;DHT22;6808;49.444;11.034;2023-04-23T09:36:51;14.90;99.90
13472;DHT22;6808;49.444;11.034;2023-04-23T09:39:23;14.90;99.90
13472;DHT22;6808;49.444;11.034;2023-04-23T09:41:51;14.90;99.90
13472;DHT22;6808;49.444;11.034;2023-04-23T09:44:21;15.00;99.90
13472;DHT22;6808;49.444;11.034;2023-04-23T09:46:47;15.10;99.90
13472;DHT22;6808;49.444;11.034;2023-04-23T09:49:13;15.00;99.90
13472;DHT22;6808;49.444;11.034;2023-04-23T09:51:40;15.00;99.90
13472;DHT22;6808;49.444;11.034;2023-04-23T09:54:17;15.00;99.90
13472;DHT22;6808;49.444;11.034;2023-04-23T09:56:43;15.00;99.90
13472;DHT22;6808;49.444;11.034;2023-04-23T09:59:29;15.10;99.90
13472;DHT22;6808;49.444;11.034;2023-04-23T10:01:56;15.20;99.90
13472;DHT22;6808;49.444;11.034;2023-04-23T10:04:25;15.30;99.90
13472;DHT22;6808;49.444;11.034;2023-04-23T10:06:55;15.30;99.90
13472;DHT22;6808;49.444;11.034;2023-04-23T10:09:22;15.40;99.90
13472;DHT22;6808;49.444;11.034;2023-04-23T10:11:52;15.50;99.90
13472;DHT22;6808;49.444;11.034;2023-04-23T10:14:20;15.50;99.90
13472;DHT22;6808;49.444;11.034;2023-04-23T10:16:46;15.50;99.90
13472;DHT22;6808;49.444;11.034;2023-04-23T10:19:18;15.50;99.90
13472;DHT22;6808;49.444;11.034;2023-04-23T10:21:45;15.60;99.90
13472;DHT22;6808;49.444;11.034;2023-04-23T10:24:13;15.70;99.90
13472;DHT22;6808;49.444;11.034;2023-04-23T10:26:41;15.80;99.90
13472;DHT22;6808;49.444;11.034;2023-04-23T10:29:12;15.90;99.90
13472;DHT22;6808;49.444;11.034;2023-04-23T10:31:39;16.10;99.90
13472;DHT22;6808;49.444;11.034;2023-04-23T10:34:06;16.30;99.90
13472;DHT22;6808;49.444;11.034;2023-04-23T10:36:33;16.40;99.40
13472;DHT22;6808;49.444;11.034;2023-04-23T10:38:58;16.50;98.70
13472;DHT22;6808;49.444;11.034;2023-04-23T10:41:34;16.60;99.90
13472;DHT22;6808;49.444;11.034;2023-04-23T10:44:03;16.80;99.40
13472;DHT22;6808;49.444;11.034;2023-04-23T10:46:30;16.90;98.60
13472;DHT22;6808;49.444;11.034;2023-04-23T10:49:13;17.00;98.70
13472;DHT22;6808;49.444;11.034;2023-04-23T10:51:45;17.00;98.10
13472;DHT22;6808;49.444;11.034;2023-04-23T10:54:15;17.10;98.90
13472;DHT22;6808;49.444;11.034;2023-04-23T10:56:42;17.30;99.30
13472;DHT22;6808;49.444;11.034;2023-04-23T10:59:20;17.40;99.20
13472;DHT22;6808;49.444;11.034;2023-04-23T11:01:49;17.50;97.70
13472;DHT22;6808;49.444;11.034;2023-04-23T11:04:22;17.40;97.20
13472;DHT22;6808;49.444;11.034;2023-04-23T11:09:30;17.60;97.30
13472;DHT22;6808;49.444;11.034;2023-04-23T11:11:57;17.70;96.80
13472;DHT22;6808;49.444;11.034;2023-04-23T11:14:48;17.50;96.70
13472;DHT22;6808;49.444;11.034;2023-04-23T11:17:21;17.40;97.10
13472;DHT22;6808;49.444;11.034;2023-04-23T11:20:09;17.40;97.20
13472;DHT22;6808;49.444;11.034;2023-04-23T11:22:39;17.50;98.30
13472;DHT22;6808;49.444;11.034;2023-04-23T11:25:11;17.70;97.60
13472;DHT22;6808;49.444;11.034;2023-04-23T11:27:42;17.60;97.00
13472;DHT22;6808;49.444;11.034;2023-04-23T11:30:13;17.40;96.80
13472;DHT22;6808;49.444;11.034;2023-04-23T11:32:40;17.30;96.80
13472;DHT22;6808;49.444;11.034;2023-04-23T11:35:06;17.40;97.50
13472;DHT22;6808;49.444;11.034;2023-04-23T11:37:38;17.70;97.00
13472;DHT22;6808;49.444;11.034;2023-04-23T11:40:08;17.90;95.70
13472;DHT22;6808;49.444;11.034;2023-04-23T11:42:42;18.00;95.40
13472;DHT22;6808;49.444;11.034;2023-04-23T11:47:50;17.80;95.30
13472;DHT22;6808;49.444;11.034;2023-04-23T11:52:50;18.10;96.20
13472;DHT22;6808;49.444;11.034;2023-04-23T11:55:17;18.20;93.90
13472;DHT22;6808;49.444;11.034;2023-04-23T11:57:47;17.90;94.00
13472;DHT22;6808;49.444;11.034;2023-04-23T12:05:19;18.10;94.30
13472;DHT22;6808;49.444;11.034;2023-04-23T12:07:49;18.10;93.00
13472;DHT22;6808;49.444;11.034;2023-04-23T12:10:17;18.10;93.00
13472;DHT22;6808;49.444;11.034;2023-04-23T12:12:43;18.20;92.80
13472;DHT22;6808;49.444;11.034;2023-04-23T12:15:09;18.00;92.90
13472;DHT22;6808;49.444;11.034;2023-04-23T12:17:34;17.80;93.10
13472;DHT22;6808;49.444;11.034;2023-04-23T12:20:03;17.80;93.20
13472;DHT22;6808;49.444;11.034;2023-04-23T12:22:31;18.20;93.70
13472;DHT22;6808;49.444;11.034;2023-04-23T12:24:56;18.40;92.80
13472;DHT22;6808;49.444;11.034;2023-04-23T12:27:23;18.40;91.30
13472;DHT22;6808;49.444;11.034;2023-04-23T12:30:00;18.40;91.40
13472;DHT22;6808;49.444;11.034;2023-04-23T12:32:25;18.60;91.10
13472;DHT22;6808;49.444;11.034;2023-04-23T12:34:54;18.70;90.00
13472;DHT22;6808;49.444;11.034;2023-04-23T12:37:27;18.80;89.90
13472;DHT22;6808;49.444;11.034;2023-04-23T12:39:53;18.80;89.30
13472;DHT22;6808;49.444;11.034;2023-04-23T12:42:21;19.00;87.40
13472;DHT22;6808;49.444;11.034;2023-04-23T12:44:46;19.00;87.10
13472;DHT22;6808;49.444;11.034;2023-04-23T12:47:12;19.30;89.30
13472;DHT22;6808;49.444;11.034;2023-04-23T12:49:40;19.30;90.60
13472;DHT22;6808;49.444;11.034;2023-04-23T12:52:07;19.40;90.20
13472;DHT22;6808;49.444;11.034;2023-04-23T12:54:35;19.50;88.40
13472;DHT22;6808;49.444;11.034;2023-04-23T12:57:05;19.50;85.40
13472;DHT22;6808;49.444;11.034;2023-04-23T12:59:32;19.50;85.20
13472;DHT22;6808;49.444;11.034;2023-04-23T13:01:58;20.00;87.70
13472;DHT22;6808;49.444;11.034;2023-04-23T13:04:28;19.40;86.50
13472;DHT22;6808;49.444;11.034;2023-04-23T13:06:53;19.10;87.50
13472;DHT22;6808;49.444;11.034;2023-04-23T13:09:19;19.00;88.90
13472;DHT22;6808;49.444;11.034;2023-04-23T13:11:46;18.80;90.00
13472;DHT22;6808;49.444;11.034;2023-04-23T13:14:14;18.70;90.20
13472;DHT22;6808;49.444;11.034;2023-04-23T13:16:41;18.70;90.40
13472;DHT22;6808;49.444;11.034;2023-04-23T13:19:06;18.50;90.50
13472;DHT22;6808;49.444;11.034;2023-04-23T13:21:32;18.60;90.10
13472;DHT22;6808;49.444;11.034;2023-04-23T13:23:57;18.60;91.00
13472;DHT22;6808;49.444;11.034;2023-04-23T13:26:23;18.60;90.20
13472;DHT22;6808;49.444;11.034;2023-04-23T13:28:49;18.50;91.10
13472;DHT22;6808;49.444;11.034;2023-04-23T13:31:14;18.80;90.80
13472;DHT22;6808;49.444;11.034;2023-04-23T13:33:40;18.80;90.20
13472;DHT22;6808;49.444;11.034;2023-04-23T13:36:06;19.00;88.60
13472;DHT22;6808;49.444;11.034;2023-04-23T13:38:32;19.20;87.10
13472;DHT22;6808;49.444;11.034;2023-04-23T13:40:57;19.40;87.50
13472;DHT22;6808;49.444;11.034;2023-04-23T13:43:23;19.30;83.30
13472;DHT22;6808;49.444;11.034;2023-04-23T13:45:48;19.50;85.90
13472;DHT22;6808;49.444;11.034;2023-04-23T13:48:14;19.40;85.30
13472;DHT22;6808;49.444;11.034;2023-04-23T13:50:41;19.70;88.60
13472;DHT22;6808;49.444;11.034;2023-04-23T13:53:08;20.00;87.10
13472;DHT22;6808;49.444;11.034;2023-04-23T13:55:34;20.20;84.60
13472;DHT22;6808;49.444;11.034;2023-04-23T13:58:00;19.80;81.50
13472;DHT22;6808;49.444;11.034;2023-04-23T14:00:27;19.80;87.30
13472;DHT22;6808;49.444;11.034;2023-04-23T14:02:53;20.00;84.40
13472;DHT22;6808;49.444;11.034;2023-04-23T14:05:19;19.80;82.00
13472;DHT22;6808;49.444;11.034;2023-04-23T14:07:45;19.60;83.50
13472;DHT22;6808;49.444;11.034;2023-04-23T14:10:10;19.80;86.90
13472;DHT22;6808;49.444;11.034;2023-04-23T14:12:37;19.90;84.80
13472;DHT22;6808;49.444;11.034;2023-04-23T14:15:04;19.70;86.60
13472;DHT22;6808;49.444;11.034;2023-04-23T14:17:30;19.70;86.30
13472;DHT22;6808;49.444;11.034;2023-04-23T14:19:56;19.60;84.00
13472;DHT22;6808;49.444;11.034;2023-04-23T14:22:21;19.60;86.90
13472;DHT22;6808;49.444;11.034;2023-04-23T14:24:55;19.50;83.20
13472;DHT22;6808;49.444;11.034;2023-04-23T14:27:22;19.60;82.60
13472;DHT22;6808;49.444;11.034;2023-04-23T14:32:18;19.60;88.30
13472;DHT22;6808;49.444;11.034;2023-04-23T14:34:44;19.40;86.00
13472;DHT22;6808;49.444;11.034;2023-04-23T14:37:10;19.40;84.90
13472;DHT22;6808;49.444;11.034;2023-04-23T14:39:35;19.20;85.60
13472;DHT22;6808;49.444;11.034;2023-04-23T14:42:01;19.20;88.10
13472;DHT22;6808;49.444;11.034;2023-04-23T14:44:27;19.30;87.50
13472;DHT22;6808;49.444;11.034;2023-04-23T14:46:53;19.20;88.70
13472;DHT22;6808;49.444;11.034;2023-04-23T14:49:18;19.50;90.10
13472;DHT22;6808;49.444;11.034;2023-04-23T14:51:46;19.60;83.10
13472;DHT22;6808;49.444;11.034;2023-04-23T14:54:12;19.60;86.60
13472;DHT22;6808;49.444;11.034;2023-04-23T14:56:37;19.40;86.60
13472;DHT22;6808;49.444;11.034;2023-04-23T14:59:03;19.40;87.10
13472;DHT22;6808;49.444;11.034;2023-04-23T15:01:29;19.50;83.00
13472;DHT22;6808;49.444;11.034;2023-04-23T15:03:55;19.50;80.40
13472;DHT22;6808;49.444;11.034;2023-04-23T15:06:21;19.40;79.80
13472;DHT22;6808;49.444;11.034;2023-04-23T15:08:47;19.40;80.30
13472;DHT22;6808;49.444;11.034;2023-04-23T15:11:12;19.40;82.90
13472;DHT22;6808;49.444;11.034;2023-04-23T15:16:27;19.30;80.50
13472;DHT22;6808;49.444;11.034;2023-04-23T15:18:56;19.30;81.00
13472;DHT22;6808;49.444;11.034;2023-04-23T15:21:22;19.20;83.00
13472;DHT22;6808;49.444;11.034;2023-04-23T15:23:48;19.10;83.80
13472;DHT22;6808;49.444;11.034;2023-04-23T15:26:13;19.10;84.50
13472;DHT22;6808;49.444;11.034;2023-04-23T15:28:40;19.30;83.90
13472;DHT22;6808;49.444;11.034;2023-04-23T15:31:06;19.50;83.50
13472;DHT22;6808;49.444;11.034;2023-04-23T15:33:32;19.70;85.00
13472;DHT22;6808;49.444;11.034;2023-04-23T15:35:57;19.70;82.40
13472;DHT22;6808;49.444;11.034;2023-04-23T15:38:23;19.80;83.00
13472;DHT22;6808;49.444;11.034;2023-04-23T15:40:48;19.90;81.20
13472;DHT22;6808;49.444;11.034;2023-04-23T15:43:15;19.90;78.70
13472;DHT22;6808;49.444;11.034;2023-04-23T15:45:41;20.20;82.60